Observation data for Northfield on 04/24/2019      Previous  Date  Next       Current Mesonet Observations  Soil Data  Daily Summary Page  Observations in Plain Language
KNOR 240500Z 23003KT 11/10 A3003 RMK A01 T01100102  RH  098%=      5-min Rain = 0
KNOR 240505Z 24003KT 11/10 A3002 RMK A01 T01110104  RH  099%=      5-min Rain = 0
KNOR 240510Z 28003KT 11/11 A3001 RMK A01 T01110105  RH  099%=      5-min Rain = 0
KNOR 240515Z 27004KT 11/11 A3001 RMK A01 T01120105  RH  099%=      5-min Rain = 0
KNOR 240520Z 29004KT 11/11 A3001 RMK A01 T01120105  RH  099%=      5-min Rain = 0
KNOR 240525Z 30006KT 11/11 A30 RMK A01 T01120106  RH  099%=      5-min Rain = 0
KNOR 240530Z 30005KT 11/11 A30 RMK A01 T01130107  RH  099%=      5-min Rain = 0
KNOR 240535Z 30004KT 11/11 A30 RMK A01 T01130107  RH  099%=      5-min Rain = 0
KNOR 240540Z 31004KT 11/11 A30 RMK A01 T01130106  RH  099%=      5-min Rain = 0
KNOR 240545Z 31004KT 11/11 A30 RMK A01 T01130107  RH  099%=      5-min Rain = 0
KNOR 240550Z 32003KT 11/11 A30 RMK A01 T01130107  RH  099%=      5-min Rain = 0
KNOR 240555Z 32003KT 11/11 A3001 RMK A01 T01120106  RH  099%=      5-min Rain = 0
KNOR 240600Z 32004KT 11/11 A30 RMK A01 T01130107  RH  099%=      5-min Rain = 0
KNOR 240605Z 33005KT 11/11 A30 RMK A01 T01130107  RH  100%=      5-min Rain = 0
KNOR 240610Z 33004KT 11/11 A30 RMK A01 T01130107  RH  100%=      5-min Rain = 0
KNOR 240615Z 33004KT 11/11 A30 RMK A01 T01120106  RH  100%=      5-min Rain = 0
KNOR 240620Z 34004KT 11/11 A2999 RMK A01 T01120106  RH  100%=      5-min Rain = 0
KNOR 240625Z 35003KT 11/11 A2999 RMK A01 T01110105  RH  100%=      5-min Rain = 0
KNOR 240630Z 34005KT 11/10 A2998 RMK A01 T01090104  RH  100%=      5-min Rain = 0
KNOR 240635Z 34005KT 11/10 A2997 RMK A01 T01090104  RH  100%=      5-min Rain = 0
KNOR 240640Z 32005KT 11/10 A2998 RMK A01 T01100104  RH  100%=      5-min Rain = 0
KNOR 240645Z 31004KT 11/10 A2999 RMK A01 T01090104  RH  100%=      5-min Rain = 0
KNOR 240650Z 32002KT 11/10 A2999 RMK A01 T01080103  RH  100%=      5-min Rain = 0
KNOR 240655Z 33003KT 11/10 A2999 RMK A01 T01080102  RH  100%=      5-min Rain = 0
KNOR 240700Z 33003KT 11/10 A2999 RMK A01 T01070102  RH  100%=      5-min Rain = 0
KNOR 240705Z 35003KT 11/10 A2999 RMK A01 T01070102  RH  100%=      5-min Rain = 0
KNOR 240710Z 35003KT 11/10 A2999 RMK A01 T01070102  RH  100%=      5-min Rain = 0
KNOR 240715Z 34002KT 11/10 A30 RMK A01 T01070102  RH  100%=      5-min Rain = 0
KNOR 240720Z 34002KT 11/10 A30 RMK A01 T01080103  RH  100%=      5-min Rain = 0
KNOR 240725Z 33003KT 11/10 A30 RMK A01 T01080103  RH  100%=      5-min Rain = 0
KNOR 240730Z 31003KT 11/10 A3001 RMK A01 T01070102  RH  100%=      5-min Rain = 0
KNOR 240735Z 26003KT 10/10 A3002 RMK A01 T01040099  RH  100%=      5-min Rain = 0
KNOR 240740Z 23002KT 10/10 A3002 RMK A01 T01020097  RH  100%=      5-min Rain = 0
KNOR 240745Z 24002KT 10/10 A3002 RMK A01 T01010096  RH  100%=      5-min Rain = 0
KNOR 240750Z 27002KT 10/10 A3001 RMK A01 T01010096  RH  100%=      5-min Rain = 0
KNOR 240755Z 28004KT 10/10 A3001 RMK A01 T01010096  RH  100%=      5-min Rain = 0
KNOR 240800Z 30003KT 10/10 A3001 RMK A01 T01010096  RH  100%=      5-min Rain = 0
KNOR 240805Z 31004KT 10/10 A30 RMK A01 T01010097  RH  100%=      5-min Rain = 0
KNOR 240810Z 31005KT 10/10 A30 RMK A01 T01020097  RH  100%=      5-min Rain = 0
KNOR 240815Z 32005KT 10/10 A30 RMK A01 T01010096  RH  100%=      5-min Rain = 0
KNOR 240820Z 32006KT 10/10 A30 RMK A01 T01000095  RH  100%=      5-min Rain = 0
KNOR 240825Z 32005KT 10/09 A30 RMK A01 T00980094  RH  100%=      5-min Rain = 0
KNOR 240830Z 32006KT 10/09 A30 RMK A01 T00980093  RH  100%=      5-min Rain = 0
KNOR 240835Z 33005KT 10/09 A2999 RMK A01 T00970092  RH  100%=      5-min Rain = 0
KNOR 240840Z 34005KT 10/09 A2999 RMK A01 T00960090  RH  099%=      5-min Rain = 0
KNOR 240845Z 34005KT 10/09 A2999 RMK A01 T00950088  RH  098%=      5-min Rain = 0
KNOR 240850Z 34006KT 09/09 A2998 RMK A01 T00940085  RH  097%=      5-min Rain = 0
KNOR 240855Z 34007KT 09/08 A2997 RMK A01 T00940083  RH  096%=      5-min Rain = 0
KNOR 240900Z 34004KT 09/08 A2998 RMK A01 T00940082  RH  095%=      5-min Rain = 0
KNOR 240905Z 34005KT 09/08 A2998 RMK A01 T00940081  RH  094%=      5-min Rain = 0
KNOR 240910Z 34005KT 09/08 A2998 RMK A01 T00940081  RH  094%=      5-min Rain = 0
KNOR 240915Z 34005KT 09/08 A2998 RMK A01 T00940080  RH  094%=      5-min Rain = 0
KNOR 240920Z 33005KT 09/08 A2998 RMK A01 T00930079  RH  094%=      5-min Rain = 0
KNOR 240925Z 32003KT 09/08 A2998 RMK A01 T00920079  RH  094%=      5-min Rain = 0
KNOR 240930Z 33003KT 09/08 A2998 RMK A01 T00910079  RH  095%=      5-min Rain = 0
KNOR 240935Z 32003KT 09/08 A2998 RMK A01 T00910079  RH  095%=      5-min Rain = 0
KNOR 240940Z 32003KT 09/08 A2998 RMK A01 T00910079  RH  095%=      5-min Rain = 0
KNOR 240945Z 31004KT 09/08 A2998 RMK A01 T00900079  RH  095%=      5-min Rain = 0
KNOR 240950Z 31004KT 09/08 A2999 RMK A01 T00900078  RH  095%=      5-min Rain = 0
KNOR 240955Z 31004KT 09/08 A2999 RMK A01 T00890078  RH  095%=      5-min Rain = 0
KNOR 241000Z 31004KT 09/08 A2999 RMK A01 T00890078  RH  095%=      5-min Rain = 0
KNOR 241005Z 32003KT 09/08 A2999 RMK A01 T00890078  RH  096%=      5-min Rain = 0
KNOR 241010Z 34004KT 09/08 A2998 RMK A01 T00890077  RH  095%=      5-min Rain = 0
KNOR 241015Z 33004KT 09/08 A2998 RMK A01 T00880077  RH  095%=      5-min Rain = 0
KNOR 241020Z 33004KT 09/08 A2998 RMK A01 T00880076  RH  095%=      5-min Rain = 0
KNOR 241025Z 32004KT 09/08 A2998 RMK A01 T00880076  RH  094%=      5-min Rain = 0
KNOR 241030Z 32003KT 09/08 A2998 RMK A01 T00880076  RH  095%=      5-min Rain = 0
KNOR 241035Z 31002KT 09/08 A2998 RMK A01 T00880076  RH  095%=      5-min Rain = 0
KNOR 241040Z 29003KT 09/08 A2998 RMK A01 T00870076  RH  095%=      5-min Rain = 0
KNOR 241045Z 29003KT 09/08 A2998 RMK A01 T00860075  RH  095%=      5-min Rain = 0
KNOR 241050Z 29003KT 09/08 A2998 RMK A01 T00870076  RH  095%=      5-min Rain = 0
KNOR 241055Z 30003KT 09/08 A2998 RMK A01 T00870076  RH  096%=      5-min Rain = 0
KNOR 241100Z 29002KT 09/08 A2998 RMK A01 T00860075  RH  095%=      5-min Rain = 0
KNOR 241105Z 28003KT 09/07 A2997 RMK A01 T00860074  RH  095%=      5-min Rain = 0
KNOR 241110Z 27003KT 09/07 A2997 RMK A01 T00850074  RH  095%=      5-min Rain = 0
KNOR 241115Z 26003KT 08/07 A2997 RMK A01 T00840074  RH  096%=      5-min Rain = 0
KNOR 241120Z 28003KT 08/07 A2997 RMK A01 T00830073  RH  096%=      5-min Rain = 0
KNOR 241125Z 29003KT 08/07 A2997 RMK A01 T00830073  RH  096%=      5-min Rain = 0
KNOR 241130Z 30004KT 08/07 A2998 RMK A01 T00830072  RH  096%=      5-min Rain = 0
KNOR 241135Z 30003KT 08/07 A2997 RMK A01 T00830072  RH  095%=      5-min Rain = 0
KNOR 241140Z 32004KT 08/07 A2996 RMK A01 T00830071  RH  095%=      5-min Rain = 0
KNOR 241145Z 30004KT 08/07 A2997 RMK A01 T00830071  RH  095%=      5-min Rain = 0
KNOR 241150Z 29004KT 08/07 A2997 RMK A01 T00820070  RH  095%=      5-min Rain = 0
KNOR 241155Z 28003KT 08/07 A2997 RMK A01 T00820070  RH  095%=      5-min Rain = 0
KNOR 241200Z 25002KT 08/07 A2998 RMK A01 T00820070  RH  095%=      5-min Rain = 0
KNOR 241205Z 26002KT 08/07 A2998 RMK A01 T00820071  RH  095%=      5-min Rain = 0
KNOR 241210Z 27002KT 08/07 A2998 RMK A01 T00820071  RH  095%=      5-min Rain = 0
KNOR 241215Z 30003KT 08/07 A2998 RMK A01 T00820070  RH  095%=      5-min Rain = 0
KNOR 241220Z 28002KT 08/07 A2999 RMK A01 T00820070  RH  095%=      5-min Rain = 0
KNOR 241225Z 26003KT 08/07 A2999 RMK A01 T00810070  RH  095%=      5-min Rain = 0
KNOR 241230Z 27002KT 08/07 A2998 RMK A01 T00810070  RH  095%=      5-min Rain = 0
KNOR 241235Z 27003KT 08/07 A2998 RMK A01 T00820071  RH  095%=      5-min Rain = 0
KNOR 241240Z 25004KT 08/07 A2999 RMK A01 T00820070  RH  095%=      5-min Rain = 0
KNOR 241245Z 25005KT 08/07 A2999 RMK A01 T00800069  RH  095%=      5-min Rain = 0
KNOR 241250Z 27003KT 08/07 A2999 RMK A01 T00810071  RH  095%=      5-min Rain = 0
KNOR 241255Z 26004KT 08/07 A2999 RMK A01 T00830073  RH  095%=      5-min Rain = 0
KNOR 241300Z 25003KT 09/07 A2999 RMK A01 T00850074  RH  095%=      5-min Rain = 0
KNOR 241305Z 27004KT 09/08 A2999 RMK A01 T00860075  RH  095%=      5-min Rain = 0
KNOR 241310Z 28003KT 09/08 A2998 RMK A01 T00870075  RH  095%=      5-min Rain = 0
KNOR 241315Z 29004KT 09/08 A2998 RMK A01 T00880076  RH  094%=      5-min Rain = 0
KNOR 241320Z 30003KT 09/08 A2998 RMK A01 T00890076  RH  094%=      5-min Rain = 0
KNOR 241325Z 28002KT 09/08 A2998 RMK A01 T00890075  RH  093%=      5-min Rain = 0
KNOR 241330Z 25003KT 09/08 A2998 RMK A01 T00900076  RH  093%=      5-min Rain = 0
KNOR 241335Z 24003KT 09/08 A2998 RMK A01 T00900076  RH  094%=      5-min Rain = 0
KNOR 241340Z 25003KT 09/08 A2999 RMK A01 T00890076  RH  094%=      5-min Rain = 0
KNOR 241345Z 29004KT 10/08 A2999 RMK A01 T00950083  RH  095%=      5-min Rain = 0
KNOR 241350Z 31006KT 10/08 A2998 RMK A01 T00970081  RH  093%=      5-min Rain = 0
KNOR 241355Z 32004KT 10/08 A2998 RMK A01 T01000079  RH  089%=      5-min Rain = 0
KNOR 241400Z 33005KT 10/08 A2998 RMK A01 T01020078  RH  087%=      5-min Rain = 0
KNOR 241405Z 33005KT 11/08 A2998 RMK A01 T01050078  RH  086%=      5-min Rain = 0
KNOR 241410Z 33006KT 11/08 A2998 RMK A01 T01080079  RH  085%=      5-min Rain = 0
KNOR 241415Z 33006KT 11/08 A2998 RMK A01 T01100079  RH  084%=      5-min Rain = 0
KNOR 241420Z 33007KT 11/08 A2997 RMK A01 T01120079  RH  083%=      5-min Rain = 0
KNOR 241425Z 33006KT 12/08 A2997 RMK A01 T01150082  RH  083%=      5-min Rain = 0
KNOR 241430Z 32006KT 12/08 A2998 RMK A01 T01190083  RH  081%=      5-min Rain = 0
KNOR 241435Z 33007KT 12/08 A2997 RMK A01 T01230081  RH  078%=      5-min Rain = 0
KNOR 241440Z 33005KT 13/08 A2997 RMK A01 T01270080  RH  075%=      5-min Rain = 0
KNOR 241445Z 33006KT 13/08 A2997 RMK A01 T01330080  RH  072%=      5-min Rain = 0
KNOR 241450Z 33007KT 13/07 A2997 RMK A01 T01330071  RH  067%=      5-min Rain = 0
KNOR 241455Z 34007KT 14/07 A2997 RMK A01 T01390072  RH  066%=      5-min Rain = 0
KNOR 241500Z 36007KT 14/06 A2997 RMK A01 T01410064  RH  061%=      5-min Rain = 0
KNOR 241505Z 35007KT 14/07 A2997 RMK A01 T01430065  RH  061%=      5-min Rain = 0
KNOR 241510Z 34007KT 14/06 A2997 RMK A01 T01440063  RH  060%=      5-min Rain = 0
KNOR 241515Z 35007KT 15/07 A2996 RMK A01 T01480065  RH  059%=      5-min Rain = 0
KNOR 241520Z 34005KT 15/07 A2996 RMK A01 T01500065  RH  058%=      5-min Rain = 0
KNOR 241525Z 34006KT 15/07 A2996 RMK A01 T01520065  RH  057%=      5-min Rain = 0
KNOR 241530Z 35005KT 16/06 A2996 RMK A01 T01550064  RH  056%=      5-min Rain = 0
KNOR 241535Z 01006KT 16/06 A2996 RMK A01 T01560061  RH  054%=      5-min Rain = 0.01
KNOR 241540Z 35005KT 16/06 A2997 RMK A01 T01580059  RH  053%=      5-min Rain = 0
KNOR 241545Z 32005KT 16/06 A2997 RMK A01 T01590062  RH  054%=      5-min Rain = 0
KNOR 241550Z 31005KT 16/06 A2997 RMK A01 T01620060  RH  052%=      5-min Rain = 0
KNOR 241555Z 33004KT 16/06 A2998 RMK A01 T01610055  RH  051%=      5-min Rain = 0
KNOR 241600Z 30004KT 16/05 A2998 RMK A01 T01620046  RH  047%=      5-min Rain = 0
KNOR 241605Z 32005KT 16/05 A2999 RMK A01 T01610051  RH  049%=      5-min Rain = 0
KNOR 241610Z 33002KT 16/05 A2999 RMK A01 T01640051  RH  048%=      5-min Rain = 0
KNOR 241615Z 32004KT 17/05 A2999 RMK A01 T01680053  RH  048%=      5-min Rain = 0
KNOR 241620Z 29002KT 17/05 A30 RMK A01 T01680047  RH  046%=      5-min Rain = 0
KNOR 241625Z 31003G8KT 17/05 A2999 RMK A01 T01710045  RH  044%=      5-min Rain = 0
KNOR 241630Z 33004KT 17/05 A2999 RMK A01 T01720048  RH  045%=      5-min Rain = 0
KNOR 241635Z 33003KT 17/04 A2999 RMK A01 T01700040  RH  043%=      5-min Rain = 0
KNOR 241640Z 33004KT 17/04 A2999 RMK A01 T01720043  RH  043%=      5-min Rain = 0
KNOR 241645Z 32005KT 17/05 A2999 RMK A01 T01730048  RH  045%=      5-min Rain = 0
KNOR 241650Z 31004KT 18/05 A2998 RMK A01 T01750052  RH  045%=      5-min Rain = 0
KNOR 241655Z 34002G7KT 18/05 A2998 RMK A01 T01770051  RH  044%=      5-min Rain = 0
KNOR 241700Z 32005KT 18/05 A2998 RMK A01 T01770051  RH  044%=      5-min Rain = 0
KNOR 241705Z 29004KT 18/05 A2997 RMK A01 T01800052  RH  044%=      5-min Rain = 0
KNOR 241710Z 29004KT 18/05 A2997 RMK A01 T01800052  RH  044%=      5-min Rain = 0
KNOR 241715Z 02004KT 18/05 A2997 RMK A01 T01790051  RH  044%=      5-min Rain = 0
KNOR 241720Z 33005KT 18/05 A2996 RMK A01 T01830054  RH  044%=      5-min Rain = 0
KNOR 241725Z 32003G8KT 18/05 A2996 RMK A01 T01810050  RH  043%=      5-min Rain = 0
KNOR 241730Z 01004KT 18/05 A2995 RMK A01 T01840054  RH  043%=      5-min Rain = 0
KNOR 241735Z 34005KT 18/06 A2995 RMK A01 T01840055  RH  044%=      5-min Rain = 0
KNOR 241740Z 34007G12KT 18/06 A2995 RMK A01 T01830056  RH  044%=      5-min Rain = 0
KNOR 241745Z 33006KT 19/06 A2995 RMK A01 T01860058  RH  044%=      5-min Rain = 0
KNOR 241750Z 33005KT 19/06 A2994 RMK A01 T01880057  RH  043%=      5-min Rain = 0
KNOR 241755Z 33008KT 19/06 A2994 RMK A01 T01890062  RH  044%=      5-min Rain = 0
KNOR 241800Z 33007KT 19/06 A2993 RMK A01 T01900062  RH  044%=      5-min Rain = 0
KNOR 241805Z 33007KT 19/06 A2993 RMK A01 T01920064  RH  044%=      5-min Rain = 0
KNOR 241810Z 32007KT 20/07 A2992 RMK A01 T01950065  RH  044%=      5-min Rain = 0
KNOR 241815Z 32007KT 19/07 A2992 RMK A01 T01930066  RH  044%=      5-min Rain = 0
KNOR 241820Z 34007G12KT 20/07 A2992 RMK A01 T01960066  RH  044%=      5-min Rain = 0
KNOR 241825Z 35009KT 20/07 A2991 RMK A01 T01970070  RH  045%=      5-min Rain = 0
KNOR 241830Z 34009KT 20/07 A2991 RMK A01 T02000070  RH  044%=      5-min Rain = 0
KNOR 241835Z 32006G11KT 20/07 A2991 RMK A01 T01980069  RH  044%=      5-min Rain = 0
KNOR 241840Z 30007G13KT 20/07 A2991 RMK A01 T02040074  RH  044%=      5-min Rain = 0
KNOR 241845Z 35007G12KT 20/07 A2991 RMK A01 T02040072  RH  043%=      5-min Rain = 0
KNOR 241850Z 00007KT 20/07 A2991 RMK A01 T02030071  RH  043%=      5-min Rain = 0
KNOR 241855Z 01006KT 20/07 A2991 RMK A01 T02000071  RH  044%=      5-min Rain = 0
KNOR 241900Z 32007KT 21/07 A2991 RMK A01 T02050074  RH  044%=      5-min Rain = 0
KNOR 241905Z 31007KT 21/08 A2991 RMK A01 T02050078  RH  045%=      5-min Rain = 0
KNOR 241910Z 31006KT 20/07 A2991 RMK A01 T02040074  RH  044%=      5-min Rain = 0
KNOR 241915Z 31003KT 20/07 A2991 RMK A01 T02000071  RH  044%=      5-min Rain = 0
KNOR 241920Z 23002KT 20/07 A2991 RMK A01 T02010071  RH  044%=      5-min Rain = 0
KNOR 241925Z 31003KT 21/08 A2991 RMK A01 T02080077  RH  044%=      5-min Rain = 0
KNOR 241930Z 30003KT 21/07 A2991 RMK A01 T02050073  RH  044%=      5-min Rain = 0
KNOR 241935Z 28004KT 21/08 A2991 RMK A01 T02070079  RH  045%=      5-min Rain = 0
KNOR 241940Z 24002KT 21/08 A299 RMK A01 T02050076  RH  044%=      5-min Rain = 0
KNOR 241945Z 22002KT 20/08 A299 RMK A01 T02040075  RH  044%=      5-min Rain = 0
KNOR 241950Z 17002KT 21/08 A299 RMK A01 T02060079  RH  045%=      5-min Rain = 0
KNOR 241955Z 00002KT 21/08 A299 RMK A01 T02080079  RH  045%=      5-min Rain = 0
KNOR 242000Z 26003KT 21/08 A299 RMK A01 T02100079  RH  044%=      5-min Rain = 0
KNOR 242005Z 28003KT 21/08 A299 RMK A01 T02080080  RH  045%=      5-min Rain = 0
KNOR 242010Z 30005KT 21/08 A299 RMK A01 T02070076  RH  044%=      5-min Rain = 0
KNOR 242015Z 36002KT 20/07 A299 RMK A01 T02030071  RH  043%=      5-min Rain = 0
KNOR 242020Z 02002KT 21/07 A2989 RMK A01 T02070074  RH  043%=      5-min Rain = 0
KNOR 242025Z 00004KT 21/08 A2989 RMK A01 T02120081  RH  044%=      5-min Rain = 0
KNOR 242030Z 00003KT 21/08 A2989 RMK A01 T02070076  RH  044%=      5-min Rain = 0
KNOR 242035Z 05004KT 21/08 A2989 RMK A01 T02060076  RH  044%=      5-min Rain = 0
KNOR 242040Z 09003KT 21/08 A2989 RMK A01 T02070078  RH  045%=      5-min Rain = 0
KNOR 242045Z 01002KT 21/08 A2989 RMK A01 T02110080  RH  044%=      5-min Rain = 0
KNOR 242050Z 03003KT 21/08 A2989 RMK A01 T02110080  RH  044%=      5-min Rain = 0
KNOR 242055Z 06002KT 21/08 A2989 RMK A01 T02080077  RH  044%=      5-min Rain = 0
KNOR 242100Z 13003KT 21/08 A2988 RMK A01 T02100079  RH  044%=      5-min Rain = 0
KNOR 242105Z 16005KT 21/08 A2988 RMK A01 T02100079  RH  044%=      5-min Rain = 0
KNOR 242110Z 20004KT 21/08 A2988 RMK A01 T02110083  RH  045%=      5-min Rain = 0
KNOR 242115Z 14004KT 22/08 A2987 RMK A01 T02150082  RH  044%=      5-min Rain = 0
KNOR 242120Z 14004KT 21/08 A2987 RMK A01 T02140083  RH  044%=      5-min Rain = 0
KNOR 242125Z 16004KT 21/08 A2987 RMK A01 T02120081  RH  044%=      5-min Rain = 0
KNOR 242130Z 13006KT 21/08 A2987 RMK A01 T02090082  RH  045%=      5-min Rain = 0
KNOR 242135Z 12007KT 21/09 A2987 RMK A01 T02050085  RH  047%=      5-min Rain = 0
KNOR 242140Z 11008KT 21/09 A2987 RMK A01 T02070088  RH  048%=      5-min Rain = 0
KNOR 242145Z 13008G13KT 21/09 A2987 RMK A01 T02060090  RH  049%=      5-min Rain = 0
KNOR 242150Z 12010KT 21/09 A2987 RMK A01 T02050090  RH  049%=      5-min Rain = 0
KNOR 242155Z 13010G15KT 21/09 A2987 RMK A01 T02080093  RH  049%=      5-min Rain = 0
KNOR 242200Z 13012KT 20/09 A2987 RMK A01 T02040090  RH  049%=      5-min Rain = 0
KNOR 242205Z 12011G16KT 20/09 A2987 RMK A01 T01990093  RH  052%=      5-min Rain = 0
KNOR 242210Z 13011KT 20/09 A2987 RMK A01 T02020094  RH  051%=      5-min Rain = 0
KNOR 242215Z 12011G16KT 20/09 A2987 RMK A01 T02000094  RH  052%=      5-min Rain = 0
KNOR 242220Z 14012G17KT 20/10 A2987 RMK A01 T01970096  RH  054%=      5-min Rain = 0
KNOR 242225Z 14012G17KT 20/10 A2987 RMK A01 T01950095  RH  054%=      5-min Rain = 0
KNOR 242230Z 14011KT 20/09 A2987 RMK A01 T01960094  RH  053%=      5-min Rain = 0
KNOR 242235Z 14011G16KT 20/09 A2987 RMK A01 T01970092  RH  052%=      5-min Rain = 0
KNOR 242240Z 14010KT 20/10 A2986 RMK A01 T01980095  RH  053%=      5-min Rain = 0
KNOR 242245Z 14010KT 20/09 A2986 RMK A01 T01980092  RH  052%=      5-min Rain = 0
KNOR 242250Z 15009KT 20/10 A2986 RMK A01 T01980095  RH  053%=      5-min Rain = 0
KNOR 242255Z 15009KT 20/10 A2986 RMK A01 T02040095  RH  051%=      5-min Rain = 0
KNOR 242300Z 15009KT 21/10 A2986 RMK A01 T02050095  RH  051%=      5-min Rain = 0
KNOR 242305Z 15009KT 20/09 A2986 RMK A01 T02010092  RH  051%=      5-min Rain = 0
KNOR 242310Z 15009KT 20/09 A2985 RMK A01 T01980094  RH  053%=      5-min Rain = 0
KNOR 242315Z 15008KT 20/09 A2985 RMK A01 T01950094  RH  054%=      5-min Rain = 0
KNOR 242320Z 15010KT 19/09 A2985 RMK A01 T01930094  RH  054%=      5-min Rain = 0
KNOR 242325Z 16009KT 20/10 A2985 RMK A01 T01960096  RH  054%=      5-min Rain = 0
KNOR 242330Z 17009KT 20/10 A2984 RMK A01 T02000097  RH  053%=      5-min Rain = 0
KNOR 242335Z 18009KT 20/10 A2984 RMK A01 T02000095  RH  052%=      5-min Rain = 0
KNOR 242340Z 17008KT 20/09 A2984 RMK A01 T01960093  RH  053%=      5-min Rain = 0
KNOR 242345Z 19008KT 19/09 A2984 RMK A01 T01940093  RH  054%=      5-min Rain = 0
KNOR 242350Z 18009KT 19/09 A2984 RMK A01 T01910093  RH  055%=      5-min Rain = 0
KNOR 242355Z 18008KT 19/09 A2984 RMK A01 T01920094  RH  055%=      5-min Rain = 0
KNOR 250000Z 18007KT 19/09 A2984 RMK A01 T01930093  RH  054%=      5-min Rain = 0
KNOR 250005Z 18007KT 19/09 A2983 RMK A01 T01940094  RH  054%=      5-min Rain = 0
KNOR 250010Z 19007KT 20/09 A2983 RMK A01 T01950093  RH  053%=      5-min Rain = 0
KNOR 250015Z 17007KT 20/09 A2983 RMK A01 T01950094  RH  054%=      5-min Rain = 0
KNOR 250020Z 18007KT 19/10 A2983 RMK A01 T01940096  RH  055%=      5-min Rain = 0
KNOR 250025Z 17008KT 20/10 A2983 RMK A01 T01960096  RH  054%=      5-min Rain = 0
KNOR 250030Z 16008KT 20/10 A2983 RMK A01 T01950098  RH  055%=      5-min Rain = 0
KNOR 250035Z 17007KT 20/10 A2983 RMK A01 T01950097  RH  055%=      5-min Rain = 0
KNOR 250040Z 17007KT 19/10 A2983 RMK A01 T01930096  RH  055%=      5-min Rain = 0
KNOR 250045Z 16007KT 19/10 A2983 RMK A01 T01900099  RH  057%=      5-min Rain = 0
KNOR 250050Z 16007KT 19/10 A2983 RMK A01 T01890102  RH  059%=      5-min Rain = 0
KNOR 250055Z 16009KT 19/10 A2984 RMK A01 T01860100  RH  059%=      5-min Rain = 0
KNOR 250100Z 16007KT 18/10 A2984 RMK A01 T01830101  RH  061%=      5-min Rain = 0
KNOR 250105Z 15006KT 18/10 A2984 RMK A01 T01800103  RH  062%=      5-min Rain = 0
KNOR 250110Z 15006KT 18/10 A2984 RMK A01 T01760103  RH  064%=      5-min Rain = 0
KNOR 250115Z 15006KT 17/10 A2984 RMK A01 T01730102  RH  065%=      5-min Rain = 0
KNOR 250120Z 15006KT 17/10 A2984 RMK A01 T01690102  RH  067%=      5-min Rain = 0
KNOR 250125Z 16007KT 17/10 A2984 RMK A01 T01650103  RH  069%=      5-min Rain = 0
KNOR 250130Z 16007KT 16/10 A2984 RMK A01 T01620104  RH  071%=      5-min Rain = 0
KNOR 250135Z 16006KT 16/11 A2984 RMK A01 T01580105  RH  073%=      5-min Rain = 0
KNOR 250140Z 16006KT 16/10 A2984 RMK A01 T01550104  RH  074%=      5-min Rain = 0
KNOR 250145Z 15006KT 15/10 A2984 RMK A01 T01540103  RH  074%=      5-min Rain = 0
KNOR 250150Z 15006KT 15/10 A2984 RMK A01 T01530103  RH  074%=      5-min Rain = 0
KNOR 250155Z 16006KT 15/10 A2985 RMK A01 T01510103  RH  076%=      5-min Rain = 0
KNOR 250200Z 17007KT 15/10 A2984 RMK A01 T01480104  RH  078%=      5-min Rain = 0
KNOR 250205Z 18007KT 15/10 A2984 RMK A01 T01500104  RH  077%=      5-min Rain = 0
KNOR 250210Z 18008KT 15/10 A2984 RMK A01 T01520103  RH  075%=      5-min Rain = 0
KNOR 250215Z 18008KT 15/10 A2984 RMK A01 T01510103  RH  076%=      5-min Rain = 0
KNOR 250220Z 18008KT 15/10 A2984 RMK A01 T01510104  RH  076%=      5-min Rain = 0
KNOR 250225Z 17008KT 15/11 A2985 RMK A01 T01510105  RH  076%=      5-min Rain = 0
KNOR 250230Z 17007KT 15/11 A2985 RMK A01 T01520105  RH  076%=      5-min Rain = 0
KNOR 250235Z 16007KT 15/11 A2985 RMK A01 T01500105  RH  077%=      5-min Rain = 0
KNOR 250240Z 17008KT 15/11 A2985 RMK A01 T01490105  RH  078%=      5-min Rain = 0
KNOR 250245Z 17008KT 15/11 A2985 RMK A01 T01490106  RH  078%=      5-min Rain = 0
KNOR 250250Z 17007KT 15/11 A2985 RMK A01 T01490106  RH  078%=      5-min Rain = 0
KNOR 250255Z 17007KT 15/11 A2985 RMK A01 T01490106  RH  078%=      5-min Rain = 0
KNOR 250300Z 18007KT 15/11 A2985 RMK A01 T01460107  RH  080%=      5-min Rain = 0
KNOR 250305Z 18008KT 14/11 A2985 RMK A01 T01440107  RH  081%=      5-min Rain = 0
KNOR 250310Z 18008KT 14/11 A2985 RMK A01 T01440107  RH  081%=      5-min Rain = 0
KNOR 250315Z 18008KT 14/11 A2985 RMK A01 T01440108  RH  082%=      5-min Rain = 0
KNOR 250320Z 19008KT 14/11 A2985 RMK A01 T01440107  RH  082%=      5-min Rain = 0
KNOR 250325Z 18008KT 14/11 A2985 RMK A01 T01420107  RH  082%=      5-min Rain = 0
KNOR 250330Z 18009KT 14/11 A2985 RMK A01 T01410107  RH  083%=      5-min Rain = 0
KNOR 250335Z 18008KT 14/11 A2985 RMK A01 T01390107  RH  084%=      5-min Rain = 0
KNOR 250340Z 18009KT 14/11 A2985 RMK A01 T01390108  RH  084%=      5-min Rain = 0
KNOR 250345Z 18009KT 14/11 A2985 RMK A01 T01400108  RH  084%=      5-min Rain = 0
KNOR 250350Z 19008KT 14/11 A2985 RMK A01 T01410108  RH  083%=      5-min Rain = 0
KNOR 250355Z 19008KT 14/11 A2985 RMK A01 T01420108  RH  083%=      5-min Rain = 0
KNOR 250400Z 18008KT 14/11 A2985 RMK A01 T01430107  RH  082%=      5-min Rain = 0
KNOR 250405Z 18008KT 14/11 A2985 RMK A01 T01420107  RH  082%=      5-min Rain = 0
KNOR 250410Z 18009KT 14/11 A2985 RMK A01 T01410106  RH  082%=      5-min Rain = 0
KNOR 250415Z 18009KT 14/11 A2985 RMK A01 T01410106  RH  082%=      5-min Rain = 0
KNOR 250420Z 18008KT 14/11 A2986 RMK A01 T01390106  RH  083%=      5-min Rain = 0
KNOR 250425Z 17009KT 14/11 A2986 RMK A01 T01390106  RH  083%=      5-min Rain = 0
KNOR 250430Z 18009KT 14/11 A2986 RMK A01 T01410106  RH  082%=      5-min Rain = 0
KNOR 250435Z 18009KT 14/11 A2985 RMK A01 T01420106  RH  082%=      5-min Rain = 0
KNOR 250440Z 18008KT 14/11 A2986 RMK A01 T01400106  RH  082%=      5-min Rain = 0
KNOR 250445Z 18008KT 14/11 A2985 RMK A01 T01390106  RH  083%=      5-min Rain = 0
KNOR 250450Z 18008KT 14/11 A2985 RMK A01 T01390106  RH  083%=      5-min Rain = 0
KNOR 250455Z 17009KT 14/11 A2985 RMK A01 T01400106  RH  083%=      5-min Rain = 0

Page generated in 0.0095 seconds.